sensor_id;sensor_type;location;lat;lon;timestamp;P1;durP1;ratioP1;P2;durP2;ratioP2
43793;SDS011;29414;44.798;20.366;2023-04-25T00:03:33;10.23;;;8.43;;
43793;SDS011;29414;44.798;20.366;2023-04-25T00:07:35;12.27;;;8.83;;
43793;SDS011;29414;44.798;20.366;2023-04-25T00:11:35;10.73;;;8.70;;
43793;SDS011;29414;44.798;20.366;2023-04-25T00:15:36;9.50;;;8.50;;
43793;SDS011;29414;44.798;20.366;2023-04-25T00:19:38;9.07;;;8.10;;
43793;SDS011;29414;44.798;20.366;2023-04-25T00:23:38;8.57;;;7.83;;
43793;SDS011;29414;44.798;20.366;2023-04-25T00:27:38;8.23;;;7.30;;
43793;SDS011;29414;44.798;20.366;2023-04-25T00:31:39;7.50;;;6.80;;
43793;SDS011;29414;44.798;20.366;2023-04-25T00:35:39;9.07;;;6.77;;
43793;SDS011;29414;44.798;20.366;2023-04-25T00:39:39;6.13;;;5.57;;
43793;SDS011;29414;44.798;20.366;2023-04-25T00:43:40;6.27;;;4.90;;
43793;SDS011;29414;44.798;20.366;2023-04-25T00:47:41;6.67;;;4.93;;
43793;SDS011;29414;44.798;20.366;2023-04-25T00:51:41;5.10;;;4.30;;
43793;SDS011;29414;44.798;20.366;2023-04-25T00:55:42;5.43;;;5.03;;
43793;SDS011;29414;44.798;20.366;2023-04-25T00:59:43;4.30;;;4.00;;
43793;SDS011;29414;44.798;20.366;2023-04-25T01:03:44;5.30;;;4.53;;
43793;SDS011;29414;44.798;20.366;2023-04-25T01:07:48;7.43;;;6.10;;
43793;SDS011;29414;44.798;20.366;2023-04-25T01:11:49;6.10;;;5.50;;
43793;SDS011;29414;44.798;20.366;2023-04-25T01:15:49;6.30;;;5.80;;
43793;SDS011;29414;44.798;20.366;2023-04-25T01:19:49;7.93;;;5.90;;
43793;SDS011;29414;44.798;20.366;2023-04-25T01:23:50;6.53;;;5.77;;
43793;SDS011;29414;44.798;20.366;2023-04-25T01:27:51;5.33;;;4.83;;
43793;SDS011;29414;44.798;20.366;2023-04-25T01:31:52;4.07;;;3.73;;
43793;SDS011;29414;44.798;20.366;2023-04-25T01:35:52;3.60;;;3.30;;
43793;SDS011;29414;44.798;20.366;2023-04-25T01:39:53;2.87;;;2.43;;
43793;SDS011;29414;44.798;20.366;2023-04-25T01:43:54;5.43;;;3.03;;
43793;SDS011;29414;44.798;20.366;2023-04-25T01:47:54;2.60;;;2.40;;
43793;SDS011;29414;44.798;20.366;2023-04-25T01:51:55;2.60;;;2.37;;
43793;SDS011;29414;44.798;20.366;2023-04-25T01:55:55;2.00;;;1.80;;
43793;SDS011;29414;44.798;20.366;2023-04-25T01:59:57;3.67;;;2.27;;
43793;SDS011;29414;44.798;20.366;2023-04-25T02:03:58;2.87;;;2.67;;
43793;SDS011;29414;44.798;20.366;2023-04-25T02:07:58;4.73;;;2.60;;
43793;SDS011;29414;44.798;20.366;2023-04-25T02:11:59;2.30;;;1.93;;
43793;SDS011;29414;44.798;20.366;2023-04-25T02:15:59;5.20;;;2.77;;
43793;SDS011;29414;44.798;20.366;2023-04-25T02:20:00;4.70;;;3.10;;
43793;SDS011;29414;44.798;20.366;2023-04-25T02:24:00;4.33;;;3.73;;
43793;SDS011;29414;44.798;20.366;2023-04-25T02:28:00;6.00;;;4.37;;
43793;SDS011;29414;44.798;20.366;2023-04-25T02:32:01;4.13;;;3.67;;
43793;SDS011;29414;44.798;20.366;2023-04-25T02:36:01;4.13;;;3.83;;
43793;SDS011;29414;44.798;20.366;2023-04-25T02:40:01;5.33;;;3.90;;
43793;SDS011;29414;44.798;20.366;2023-04-25T02:44:02;5.83;;;4.57;;
43793;SDS011;29414;44.798;20.366;2023-04-25T02:48:03;5.20;;;4.70;;
43793;SDS011;29414;44.798;20.366;2023-04-25T02:52:03;6.23;;;3.93;;
43793;SDS011;29414;44.798;20.366;2023-04-25T02:56:03;4.23;;;3.73;;
43793;SDS011;29414;44.798;20.366;2023-04-25T03:00:04;4.60;;;3.37;;
43793;SDS011;29414;44.798;20.366;2023-04-25T03:04:05;6.83;;;3.57;;
43793;SDS011;29414;44.798;20.366;2023-04-25T03:08:05;10.47;;;3.90;;
43793;SDS011;29414;44.798;20.366;2023-04-25T03:12:06;4.43;;;3.20;;
43793;SDS011;29414;44.798;20.366;2023-04-25T03:16:06;5.33;;;3.63;;
43793;SDS011;29414;44.798;20.366;2023-04-25T03:20:06;3.63;;;2.53;;
43793;SDS011;29414;44.798;20.366;2023-04-25T03:24:08;8.37;;;3.20;;
43793;SDS011;29414;44.798;20.366;2023-04-25T03:28:08;3.70;;;3.10;;
43793;SDS011;29414;44.798;20.366;2023-04-25T03:32:09;4.60;;;3.07;;
43793;SDS011;29414;44.798;20.366;2023-04-25T03:36:09;4.27;;;2.20;;
43793;SDS011;29414;44.798;20.366;2023-04-25T03:40:10;8.23;;;2.93;;
43793;SDS011;29414;44.798;20.366;2023-04-25T03:44:10;5.17;;;3.60;;
43793;SDS011;29414;44.798;20.366;2023-04-25T03:48:11;4.50;;;2.37;;
43793;SDS011;29414;44.798;20.366;2023-04-25T03:52:11;5.27;;;2.80;;
43793;SDS011;29414;44.798;20.366;2023-04-25T03:56:11;5.53;;;3.03;;
43793;SDS011;29414;44.798;20.366;2023-04-25T04:00:12;5.53;;;2.73;;
43793;SDS011;29414;44.798;20.366;2023-04-25T04:04:13;5.53;;;2.70;;
43793;SDS011;29414;44.798;20.366;2023-04-25T04:08:13;5.10;;;3.10;;
43793;SDS011;29414;44.798;20.366;2023-04-25T04:12:13;4.13;;;3.77;;
43793;SDS011;29414;44.798;20.366;2023-04-25T04:16:13;4.07;;;3.77;;
43793;SDS011;29414;44.798;20.366;2023-04-25T04:20:14;4.10;;;3.63;;
43793;SDS011;29414;44.798;20.366;2023-04-25T04:24:14;5.47;;;3.37;;
43793;SDS011;29414;44.798;20.366;2023-04-25T04:28:16;4.07;;;3.33;;
43793;SDS011;29414;44.798;20.366;2023-04-25T04:32:17;5.67;;;3.73;;
43793;SDS011;29414;44.798;20.366;2023-04-25T04:36:18;5.70;;;4.00;;
43793;SDS011;29414;44.798;20.366;2023-04-25T04:40:22;5.10;;;3.70;;
43793;SDS011;29414;44.798;20.366;2023-04-25T04:44:23;3.40;;;3.10;;
43793;SDS011;29414;44.798;20.366;2023-04-25T04:48:23;6.83;;;4.50;;
43793;SDS011;29414;44.798;20.366;2023-04-25T04:52:23;5.67;;;4.30;;
43793;SDS011;29414;44.798;20.366;2023-04-25T04:56:24;3.40;;;3.07;;
43793;SDS011;29414;44.798;20.366;2023-04-25T05:00:25;2.97;;;1.27;;
43793;SDS011;29414;44.798;20.366;2023-04-25T05:04:26;1.63;;;1.50;;
43793;SDS011;29414;44.798;20.366;2023-04-25T05:08:26;1.87;;;1.67;;
43793;SDS011;29414;44.798;20.366;2023-04-25T05:12:26;2.83;;;2.20;;
43793;SDS011;29414;44.798;20.366;2023-04-25T05:16:26;5.17;;;3.07;;
43793;SDS011;29414;44.798;20.366;2023-04-25T05:20:27;4.10;;;2.43;;
43793;SDS011;29414;44.798;20.366;2023-04-25T05:24:30;2.40;;;2.07;;
43793;SDS011;29414;44.798;20.366;2023-04-25T05:28:30;3.20;;;2.43;;
43793;SDS011;29414;44.798;20.366;2023-04-25T05:32:34;3.20;;;2.50;;
43793;SDS011;29414;44.798;20.366;2023-04-25T05:36:35;4.37;;;2.70;;
43793;SDS011;29414;44.798;20.366;2023-04-25T05:40:36;4.33;;;2.70;;
43793;SDS011;29414;44.798;20.366;2023-04-25T05:44:36;4.03;;;3.63;;
43793;SDS011;29414;44.798;20.366;2023-04-25T05:48:37;3.60;;;3.10;;
43793;SDS011;29414;44.798;20.366;2023-04-25T05:52:37;3.33;;;2.77;;
43793;SDS011;29414;44.798;20.366;2023-04-25T05:56:38;2.47;;;2.27;;
43793;SDS011;29414;44.798;20.366;2023-04-25T06:00:38;7.97;;;4.27;;
43793;SDS011;29414;44.798;20.366;2023-04-25T06:04:41;2.93;;;2.70;;
43793;SDS011;29414;44.798;20.366;2023-04-25T06:08:41;4.30;;;2.97;;
43793;SDS011;29414;44.798;20.366;2023-04-25T06:12:42;4.23;;;3.43;;
43793;SDS011;29414;44.798;20.366;2023-04-25T06:16:42;3.13;;;2.70;;
43793;SDS011;29414;44.798;20.366;2023-04-25T06:20:42;3.93;;;2.03;;
43793;SDS011;29414;44.798;20.366;2023-04-25T06:24:43;4.70;;;3.00;;
43793;SDS011;29414;44.798;20.366;2023-04-25T06:28:43;4.33;;;2.97;;
43793;SDS011;29414;44.798;20.366;2023-04-25T06:32:43;3.67;;;2.93;;
43793;SDS011;29414;44.798;20.366;2023-04-25T06:36:43;4.63;;;2.50;;
43793;SDS011;29414;44.798;20.366;2023-04-25T06:40:44;2.80;;;2.60;;
43793;SDS011;29414;44.798;20.366;2023-04-25T06:44:44;3.47;;;3.17;;
43793;SDS011;29414;44.798;20.366;2023-04-25T06:48:47;2.90;;;2.60;;
43793;SDS011;29414;44.798;20.366;2023-04-25T06:52:48;2.77;;;2.50;;
43793;SDS011;29414;44.798;20.366;2023-04-25T06:56:48;3.07;;;2.77;;
43793;SDS011;29414;44.798;20.366;2023-04-25T07:00:48;4.77;;;2.80;;
43793;SDS011;29414;44.798;20.366;2023-04-25T07:04:49;4.83;;;2.33;;
43793;SDS011;29414;44.798;20.366;2023-04-25T07:08:49;2.50;;;2.30;;
43793;SDS011;29414;44.798;20.366;2023-04-25T07:12:49;2.50;;;2.33;;
43793;SDS011;29414;44.798;20.366;2023-04-25T07:16:52;2.50;;;2.30;;
43793;SDS011;29414;44.798;20.366;2023-04-25T07:20:52;3.70;;;2.67;;
43793;SDS011;29414;44.798;20.366;2023-04-25T07:24:52;5.63;;;2.53;;
43793;SDS011;29414;44.798;20.366;2023-04-25T07:28:53;3.13;;;2.83;;
43793;SDS011;29414;44.798;20.366;2023-04-25T07:32:54;3.43;;;2.83;;
43793;SDS011;29414;44.798;20.366;2023-04-25T07:36:55;2.90;;;2.70;;
43793;SDS011;29414;44.798;20.366;2023-04-25T07:40:55;3.93;;;3.10;;
43793;SDS011;29414;44.798;20.366;2023-04-25T07:44:56;3.60;;;2.37;;
43793;SDS011;29414;44.798;20.366;2023-04-25T07:48:56;2.60;;;2.40;;
43793;SDS011;29414;44.798;20.366;2023-04-25T07:52:56;3.37;;;2.30;;
43793;SDS011;29414;44.798;20.366;2023-04-25T07:56:56;3.90;;;2.87;;
43793;SDS011;29414;44.798;20.366;2023-04-25T08:00:57;2.97;;;2.67;;
43793;SDS011;29414;44.798;20.366;2023-04-25T08:04:57;4.33;;;2.60;;
43793;SDS011;29414;44.798;20.366;2023-04-25T08:08:57;2.20;;;2.10;;
43793;SDS011;29414;44.798;20.366;2023-04-25T08:12:58;2.70;;;1.67;;
43793;SDS011;29414;44.798;20.366;2023-04-25T08:16:58;2.57;;;2.33;;
43793;SDS011;29414;44.798;20.366;2023-04-25T08:20:59;2.60;;;1.80;;
43793;SDS011;29414;44.798;20.366;2023-04-25T08:24:59;2.17;;;2.00;;
43793;SDS011;29414;44.798;20.366;2023-04-25T08:29:00;5.50;;;2.43;;
43793;SDS011;29414;44.798;20.366;2023-04-25T08:33:00;2.53;;;2.33;;
43793;SDS011;29414;44.798;20.366;2023-04-25T08:37:00;2.93;;;2.30;;
43793;SDS011;29414;44.798;20.366;2023-04-25T08:41:00;3.95;;;2.17;;
43793;SDS011;29414;44.798;20.366;2023-04-25T08:45:01;2.23;;;2.03;;
43793;SDS011;29414;44.798;20.366;2023-04-25T08:49:02;3.03;;;1.85;;
43793;SDS011;29414;44.798;20.366;2023-04-25T08:53:04;2.60;;;1.95;;
43793;SDS011;29414;44.798;20.366;2023-04-25T08:57:04;2.40;;;2.10;;
43793;SDS011;29414;44.798;20.366;2023-04-25T09:01:05;3.13;;;1.67;;
43793;SDS011;29414;44.798;20.366;2023-04-25T09:05:06;2.10;;;1.85;;
43793;SDS011;29414;44.798;20.366;2023-04-25T09:09:07;1.70;;;1.27;;
43793;SDS011;29414;44.798;20.366;2023-04-25T09:13:11;3.45;;;1.38;;
43793;SDS011;29414;44.798;20.366;2023-04-25T09:17:15;4.50;;;1.50;;
43793;SDS011;29414;44.798;20.366;2023-04-25T09:21:15;1.38;;;1.17;;
43793;SDS011;29414;44.798;20.366;2023-04-25T09:25:15;1.77;;;1.55;;
43793;SDS011;29414;44.798;20.366;2023-04-25T09:29:16;2.33;;;1.60;;
43793;SDS011;29414;44.798;20.366;2023-04-25T09:33:17;2.24;;;2.10;;
43793;SDS011;29414;44.798;20.366;2023-04-25T09:37:27;2.53;;;2.33;;
43793;SDS011;29414;44.798;20.366;2023-04-25T09:41:28;2.10;;;1.88;;
43793;SDS011;29414;44.798;20.366;2023-04-25T09:45:29;1.50;;;1.40;;
43793;SDS011;29414;44.798;20.366;2023-04-25T09:49:31;2.05;;;1.48;;
43793;SDS011;29414;44.798;20.366;2023-04-25T09:53:38;3.03;;;1.00;;
43793;SDS011;29414;44.798;20.366;2023-04-25T09:57:39;1.95;;;1.23;;
43793;SDS011;29414;44.798;20.366;2023-04-25T10:01:40;2.13;;;1.20;;
43793;SDS011;29414;44.798;20.366;2023-04-25T10:05:42;2.03;;;1.60;;
43793;SDS011;29414;44.798;20.366;2023-04-25T10:09:44;1.65;;;1.38;;
43793;SDS011;29414;44.798;20.366;2023-04-25T10:13:46;4.13;;;1.90;;
43793;SDS011;29414;44.798;20.366;2023-04-25T10:17:48;3.15;;;1.70;;
43793;SDS011;29414;44.798;20.366;2023-04-25T10:26:01;2.63;;;1.77;;
43793;SDS011;29414;44.798;20.366;2023-04-25T10:34:06;2.97;;;1.20;;
43793;SDS011;29414;44.798;20.366;2023-04-25T10:38:09;1.65;;;0.80;;
43793;SDS011;29414;44.798;20.366;2023-04-25T10:42:10;2.35;;;1.10;;
43793;SDS011;29414;44.798;20.366;2023-04-25T10:46:29;2.38;;;0.73;;
43793;SDS011;29414;44.798;20.366;2023-04-25T10:50:37;1.52;;;1.00;;
43793;SDS011;29414;44.798;20.366;2023-04-25T10:54:41;1.27;;;0.93;;
43793;SDS011;29414;44.798;20.366;2023-04-25T10:58:45;1.63;;;0.93;;
43793;SDS011;29414;44.798;20.366;2023-04-25T11:02:51;1.83;;;0.90;;
43793;SDS011;29414;44.798;20.366;2023-04-25T11:10:52;2.46;;;1.20;;
43793;SDS011;29414;44.798;20.366;2023-04-25T11:14:57;3.05;;;1.48;;
43793;SDS011;29414;44.798;20.366;2023-04-25T11:23:01;2.35;;;1.10;;
43793;SDS011;29414;44.798;20.366;2023-04-25T11:27:02;0.93;;;0.77;;
43793;SDS011;29414;44.798;20.366;2023-04-25T11:31:02;1.23;;;1.08;;
43793;SDS011;29414;44.798;20.366;2023-04-25T11:35:04;8.18;;;5.32;;
43793;SDS011;29414;44.798;20.366;2023-04-25T11:39:06;1.67;;;0.93;;
43793;SDS011;29414;44.798;20.366;2023-04-25T11:43:06;1.45;;;0.90;;
43793;SDS011;29414;44.798;20.366;2023-04-25T11:47:07;2.92;;;1.13;;
43793;SDS011;29414;44.798;20.366;2023-04-25T11:51:07;2.92;;;0.98;;
43793;SDS011;29414;44.798;20.366;2023-04-25T11:55:08;1.02;;;0.60;;
43793;SDS011;29414;44.798;20.366;2023-04-25T11:59:09;1.90;;;1.00;;
43793;SDS011;29414;44.798;20.366;2023-04-25T12:03:10;2.05;;;1.23;;
43793;SDS011;29414;44.798;20.366;2023-04-25T12:07:10;3.35;;;0.80;;
43793;SDS011;29414;44.798;20.366;2023-04-25T12:11:20;2.63;;;0.90;;
43793;SDS011;29414;44.798;20.366;2023-04-25T12:15:24;1.17;;;0.68;;
43793;SDS011;29414;44.798;20.366;2023-04-25T12:19:26;1.05;;;0.77;;
43793;SDS011;29414;44.798;20.366;2023-04-25T12:23:27;4.35;;;1.30;;
43793;SDS011;29414;44.798;20.366;2023-04-25T12:27:28;1.75;;;0.70;;
43793;SDS011;29414;44.798;20.366;2023-04-25T12:31:28;4.32;;;0.73;;
43793;SDS011;29414;44.798;20.366;2023-04-25T12:35:29;1.52;;;0.70;;
43793;SDS011;29414;44.798;20.366;2023-04-25T12:39:29;2.63;;;0.85;;
43793;SDS011;29414;44.798;20.366;2023-04-25T12:43:29;5.84;;;1.50;;
43793;SDS011;29414;44.798;20.366;2023-04-25T12:47:30;5.13;;;1.00;;
43793;SDS011;29414;44.798;20.366;2023-04-25T12:51:30;1.30;;;0.85;;
43793;SDS011;29414;44.798;20.366;2023-04-25T12:55:32;1.08;;;0.93;;
43793;SDS011;29414;44.798;20.366;2023-04-25T12:59:33;2.13;;;0.98;;
43793;SDS011;29414;44.798;20.366;2023-04-25T13:03:33;3.47;;;1.08;;
43793;SDS011;29414;44.798;20.366;2023-04-25T13:07:34;1.98;;;1.05;;
43793;SDS011;29414;44.798;20.366;2023-04-25T13:11:34;2.47;;;0.82;;
43793;SDS011;29414;44.798;20.366;2023-04-25T13:15:35;2.35;;;1.10;;
43793;SDS011;29414;44.798;20.366;2023-04-25T13:19:36;7.88;;;2.53;;
43793;SDS011;29414;44.798;20.366;2023-04-25T13:23:37;2.13;;;1.85;;
43793;SDS011;29414;44.798;20.366;2023-04-25T13:27:37;2.45;;;1.25;;
43793;SDS011;29414;44.798;20.366;2023-04-25T13:31:39;1.73;;;0.80;;
43793;SDS011;29414;44.798;20.366;2023-04-25T13:35:39;2.05;;;1.48;;
43793;SDS011;29414;44.798;20.366;2023-04-25T13:39:39;0.75;;;0.60;;
43793;SDS011;29414;44.798;20.366;2023-04-25T13:43:40;1.75;;;1.13;;
43793;SDS011;29414;44.798;20.366;2023-04-25T13:47:40;2.67;;;0.90;;
43793;SDS011;29414;44.798;20.366;2023-04-25T13:51:40;1.14;;;0.60;;
43793;SDS011;29414;44.798;20.366;2023-04-25T13:55:42;5.50;;;0.60;;
43793;SDS011;29414;44.798;20.366;2023-04-25T13:59:42;2.22;;;0.80;;
43793;SDS011;29414;44.798;20.366;2023-04-25T14:03:44;2.92;;;1.02;;
43793;SDS011;29414;44.798;20.366;2023-04-25T14:07:44;2.28;;;0.70;;
43793;SDS011;29414;44.798;20.366;2023-04-25T14:11:44;4.00;;;1.27;;
43793;SDS011;29414;44.798;20.366;2023-04-25T14:15:45;3.13;;;0.57;;
43793;SDS011;29414;44.798;20.366;2023-04-25T14:19:46;0.70;;;0.43;;
43793;SDS011;29414;44.798;20.366;2023-04-25T14:23:50;2.70;;;0.35;;
43793;SDS011;29414;44.798;20.366;2023-04-25T14:27:51;1.02;;;0.55;;
43793;SDS011;29414;44.798;20.366;2023-04-25T14:31:51;1.23;;;0.43;;
43793;SDS011;29414;44.798;20.366;2023-04-25T14:35:51;1.08;;;0.35;;
43793;SDS011;29414;44.798;20.366;2023-04-25T14:39:59;3.00;;;0.95;;
43793;SDS011;29414;44.798;20.366;2023-04-25T14:43:59;2.68;;;1.20;;
43793;SDS011;29414;44.798;20.366;2023-04-25T14:47:59;1.26;;;0.54;;
43793;SDS011;29414;44.798;20.366;2023-04-25T14:52:00;3.63;;;0.63;;
43793;SDS011;29414;44.798;20.366;2023-04-25T14:56:01;2.40;;;0.73;;
43793;SDS011;29414;44.798;20.366;2023-04-25T15:00:01;3.83;;;0.47;;
43793;SDS011;29414;44.798;20.366;2023-04-25T15:04:02;2.00;;;0.88;;
43793;SDS011;29414;44.798;20.366;2023-04-25T15:08:06;1.33;;;0.90;;
43793;SDS011;29414;44.798;20.366;2023-04-25T15:12:06;2.38;;;0.80;;
43793;SDS011;29414;44.798;20.366;2023-04-25T15:16:07;1.38;;;0.52;;
43793;SDS011;29414;44.798;20.366;2023-04-25T15:20:08;2.10;;;1.00;;
43793;SDS011;29414;44.798;20.366;2023-04-25T15:24:09;2.45;;;0.98;;
43793;SDS011;29414;44.798;20.366;2023-04-25T15:28:11;3.67;;;1.38;;
43793;SDS011;29414;44.798;20.366;2023-04-25T15:32:11;1.35;;;0.82;;
43793;SDS011;29414;44.798;20.366;2023-04-25T15:36:12;1.75;;;0.88;;
43793;SDS011;29414;44.798;20.366;2023-04-25T15:40:15;2.60;;;0.60;;
43793;SDS011;29414;44.798;20.366;2023-04-25T15:44:15;6.05;;;0.70;;
43793;SDS011;29414;44.798;20.366;2023-04-25T15:48:15;2.38;;;0.88;;
43793;SDS011;29414;44.798;20.366;2023-04-25T15:52:16;1.65;;;0.65;;
43793;SDS011;29414;44.798;20.366;2023-04-25T15:56:20;3.73;;;1.20;;
43793;SDS011;29414;44.798;20.366;2023-04-25T16:00:24;2.30;;;0.68;;
43793;SDS011;29414;44.798;20.366;2023-04-25T16:04:24;2.70;;;0.75;;
43793;SDS011;29414;44.798;20.366;2023-04-25T16:08:25;4.00;;;0.85;;
43793;SDS011;29414;44.798;20.366;2023-04-25T16:12:28;1.27;;;0.80;;
43793;SDS011;29414;44.798;20.366;2023-04-25T16:16:30;3.85;;;0.80;;
43793;SDS011;29414;44.798;20.366;2023-04-25T16:20:30;1.20;;;0.77;;
43793;SDS011;29414;44.798;20.366;2023-04-25T16:24:30;1.58;;;0.98;;
43793;SDS011;29414;44.798;20.366;2023-04-25T16:28:30;1.60;;;0.70;;
43793;SDS011;29414;44.798;20.366;2023-04-25T16:32:31;5.55;;;1.10;;
43793;SDS011;29414;44.798;20.366;2023-04-25T16:36:31;3.72;;;1.40;;
43793;SDS011;29414;44.798;20.366;2023-04-25T16:40:32;6.07;;;1.67;;
43793;SDS011;29414;44.798;20.366;2023-04-25T16:44:32;3.65;;;1.50;;
43793;SDS011;29414;44.798;20.366;2023-04-25T16:48:33;3.45;;;1.52;;
43793;SDS011;29414;44.798;20.366;2023-04-25T16:52:33;1.85;;;1.45;;
43793;SDS011;29414;44.798;20.366;2023-04-25T16:56:34;2.85;;;1.67;;
43793;SDS011;29414;44.798;20.366;2023-04-25T17:00:34;3.00;;;1.75;;
43793;SDS011;29414;44.798;20.366;2023-04-25T17:04:35;4.65;;;2.00;;
43793;SDS011;29414;44.798;20.366;2023-04-25T17:08:35;6.25;;;3.20;;
43793;SDS011;29414;44.798;20.366;2023-04-25T17:12:36;3.40;;;2.50;;
43793;SDS011;29414;44.798;20.366;2023-04-25T17:16:36;5.80;;;3.60;;
43793;SDS011;29414;44.798;20.366;2023-04-25T17:20:37;5.53;;;3.47;;
43793;SDS011;29414;44.798;20.366;2023-04-25T17:24:37;12.32;;;4.32;;
43793;SDS011;29414;44.798;20.366;2023-04-25T17:28:39;5.07;;;3.17;;
43793;SDS011;29414;44.798;20.366;2023-04-25T17:32:41;4.05;;;2.65;;
43793;SDS011;29414;44.798;20.366;2023-04-25T17:36:41;4.88;;;2.58;;
43793;SDS011;29414;44.798;20.366;2023-04-25T17:40:41;4.47;;;2.75;;
43793;SDS011;29414;44.798;20.366;2023-04-25T17:44:42;4.05;;;2.88;;
43793;SDS011;29414;44.798;20.366;2023-04-25T17:48:42;5.40;;;2.92;;
43793;SDS011;29414;44.798;20.366;2023-04-25T17:52:43;7.88;;;3.03;;
43793;SDS011;29414;44.798;20.366;2023-04-25T17:56:44;5.82;;;2.60;;
43793;SDS011;29414;44.798;20.366;2023-04-25T18:00:44;7.03;;;4.25;;
43793;SDS011;29414;44.798;20.366;2023-04-25T18:04:45;5.90;;;3.50;;
43793;SDS011;29414;44.798;20.366;2023-04-25T18:08:45;7.57;;;4.07;;
43793;SDS011;29414;44.798;20.366;2023-04-25T18:12:46;7.15;;;4.97;;
43793;SDS011;29414;44.798;20.366;2023-04-25T18:16:47;8.65;;;5.25;;
43793;SDS011;29414;44.798;20.366;2023-04-25T18:20:47;9.27;;;5.78;;
43793;SDS011;29414;44.798;20.366;2023-04-25T18:24:48;9.93;;;4.93;;
43793;SDS011;29414;44.798;20.366;2023-04-25T18:28:49;6.55;;;4.97;;
43793;SDS011;29414;44.798;20.366;2023-04-25T18:32:49;8.23;;;5.10;;
43793;SDS011;29414;44.798;20.366;2023-04-25T18:36:49;7.70;;;4.75;;
43793;SDS011;29414;44.798;20.366;2023-04-25T18:40:51;6.05;;;4.75;;
43793;SDS011;29414;44.798;20.366;2023-04-25T18:44:51;6.82;;;5.20;;
43793;SDS011;29414;44.798;20.366;2023-04-25T18:48:52;8.36;;;5.80;;
43793;SDS011;29414;44.798;20.366;2023-04-25T18:52:52;7.43;;;4.60;;
43793;SDS011;29414;44.798;20.366;2023-04-25T18:56:53;6.85;;;5.38;;
43793;SDS011;29414;44.798;20.366;2023-04-25T19:00:55;8.75;;;6.00;;
43793;SDS011;29414;44.798;20.366;2023-04-25T19:04:56;14.73;;;7.60;;
43793;SDS011;29414;44.798;20.366;2023-04-25T19:08:56;13.98;;;9.42;;
43793;SDS011;29414;44.798;20.366;2023-04-25T19:12:57;18.10;;;13.80;;
43793;SDS011;29414;44.798;20.366;2023-04-25T19:16:57;25.02;;;12.95;;
43793;SDS011;29414;44.798;20.366;2023-04-25T19:20:58;17.77;;;11.65;;
43793;SDS011;29414;44.798;20.366;2023-04-25T19:24:59;21.10;;;13.90;;
43793;SDS011;29414;44.798;20.366;2023-04-25T19:29:12;18.63;;;12.98;;
43793;SDS011;29414;44.798;20.366;2023-04-25T19:33:13;14.20;;;10.87;;
43793;SDS011;29414;44.798;20.366;2023-04-25T19:37:14;15.57;;;11.07;;
43793;SDS011;29414;44.798;20.366;2023-04-25T19:41:14;13.70;;;9.40;;
43793;SDS011;29414;44.798;20.366;2023-04-25T19:45:15;12.20;;;8.57;;
43793;SDS011;29414;44.798;20.366;2023-04-25T19:49:16;9.45;;;8.50;;
43793;SDS011;29414;44.798;20.366;2023-04-25T19:53:17;13.63;;;9.55;;
43793;SDS011;29414;44.798;20.366;2023-04-25T19:57:17;15.87;;;9.03;;
43793;SDS011;29414;44.798;20.366;2023-04-25T20:01:20;33.72;;;28.56;;
43793;SDS011;29414;44.798;20.366;2023-04-25T20:05:21;30.83;;;21.77;;
43793;SDS011;29414;44.798;20.366;2023-04-25T20:09:22;15.67;;;11.47;;
43793;SDS011;29414;44.798;20.366;2023-04-25T20:13:22;13.87;;;9.70;;
43793;SDS011;29414;44.798;20.366;2023-04-25T20:17:23;9.52;;;7.70;;
43793;SDS011;29414;44.798;20.366;2023-04-25T20:21:23;13.73;;;6.87;;
43793;SDS011;29414;44.798;20.366;2023-04-25T20:25:24;7.60;;;6.33;;
43793;SDS011;29414;44.798;20.366;2023-04-25T20:29:24;8.50;;;6.87;;
43793;SDS011;29414;44.798;20.366;2023-04-25T20:33:25;10.33;;;8.03;;
43793;SDS011;29414;44.798;20.366;2023-04-25T20:37:25;13.93;;;7.83;;
43793;SDS011;29414;44.798;20.366;2023-04-25T20:41:29;13.17;;;10.20;;
43793;SDS011;29414;44.798;20.366;2023-04-25T20:45:30;15.13;;;12.50;;
43793;SDS011;29414;44.798;20.366;2023-04-25T20:49:32;24.93;;;18.37;;
43793;SDS011;29414;44.798;20.366;2023-04-25T20:53:32;23.77;;;17.80;;
43793;SDS011;29414;44.798;20.366;2023-04-25T20:57:33;32.77;;;20.07;;
43793;SDS011;29414;44.798;20.366;2023-04-25T21:01:34;27.77;;;20.37;;
43793;SDS011;29414;44.798;20.366;2023-04-25T21:05:34;20.50;;;15.47;;
43793;SDS011;29414;44.798;20.366;2023-04-25T21:09:35;18.60;;;14.87;;
43793;SDS011;29414;44.798;20.366;2023-04-25T21:13:35;18.50;;;14.13;;
43793;SDS011;29414;44.798;20.366;2023-04-25T21:17:35;21.23;;;13.97;;
43793;SDS011;29414;44.798;20.366;2023-04-25T21:21:36;21.90;;;14.27;;
43793;SDS011;29414;44.798;20.366;2023-04-25T21:25:36;19.57;;;14.10;;
43793;SDS011;29414;44.798;20.366;2023-04-25T21:29:37;18.50;;;14.47;;
43793;SDS011;29414;44.798;20.366;2023-04-25T21:33:39;22.40;;;15.00;;
43793;SDS011;29414;44.798;20.366;2023-04-25T21:37:40;22.17;;;16.30;;
43793;SDS011;29414;44.798;20.366;2023-04-25T21:41:40;27.53;;;18.97;;
43793;SDS011;29414;44.798;20.366;2023-04-25T21:45:42;27.60;;;19.80;;
43793;SDS011;29414;44.798;20.366;2023-04-25T21:49:42;30.40;;;18.90;;
43793;SDS011;29414;44.798;20.366;2023-04-25T21:53:43;30.03;;;19.90;;
43793;SDS011;29414;44.798;20.366;2023-04-25T21:57:43;33.10;;;21.77;;
43793;SDS011;29414;44.798;20.366;2023-04-25T22:01:43;30.40;;;20.80;;
43793;SDS011;29414;44.798;20.366;2023-04-25T22:05:44;28.50;;;20.50;;
43793;SDS011;29414;44.798;20.366;2023-04-25T22:09:44;30.97;;;21.10;;
43793;SDS011;29414;44.798;20.366;2023-04-25T22:13:44;27.57;;;17.83;;
43793;SDS011;29414;44.798;20.366;2023-04-25T22:17:46;24.03;;;17.27;;
43793;SDS011;29414;44.798;20.366;2023-04-25T22:21:46;22.53;;;17.37;;
43793;SDS011;29414;44.798;20.366;2023-04-25T22:25:46;24.63;;;16.77;;
43793;SDS011;29414;44.798;20.366;2023-04-25T22:29:47;23.07;;;16.13;;
43793;SDS011;29414;44.798;20.366;2023-04-25T22:33:47;20.13;;;16.10;;
43793;SDS011;29414;44.798;20.366;2023-04-25T22:37:47;22.43;;;15.17;;
43793;SDS011;29414;44.798;20.366;2023-04-25T22:41:48;23.97;;;16.20;;
43793;SDS011;29414;44.798;20.366;2023-04-25T22:45:48;21.80;;;17.90;;
43793;SDS011;29414;44.798;20.366;2023-04-25T22:49:49;23.70;;;16.57;;
43793;SDS011;29414;44.798;20.366;2023-04-25T22:53:50;25.03;;;19.17;;
43793;SDS011;29414;44.798;20.366;2023-04-25T22:57:50;25.33;;;17.57;;
43793;SDS011;29414;44.798;20.366;2023-04-25T23:01:51;30.53;;;19.00;;
43793;SDS011;29414;44.798;20.366;2023-04-25T23:05:55;27.73;;;18.50;;
43793;SDS011;29414;44.798;20.366;2023-04-25T23:09:55;35.60;;;25.83;;
43793;SDS011;29414;44.798;20.366;2023-04-25T23:13:56;37.77;;;26.77;;
43793;SDS011;29414;44.798;20.366;2023-04-25T23:17:57;32.50;;;24.80;;
43793;SDS011;29414;44.798;20.366;2023-04-25T23:21:57;32.20;;;21.03;;
43793;SDS011;29414;44.798;20.366;2023-04-25T23:26:05;25.37;;;19.50;;
43793;SDS011;29414;44.798;20.366;2023-04-25T23:30:06;25.03;;;17.77;;
43793;SDS011;29414;44.798;20.366;2023-04-25T23:34:07;22.50;;;16.37;;
43793;SDS011;29414;44.798;20.366;2023-04-25T23:38:07;23.47;;;16.80;;
43793;SDS011;29414;44.798;20.366;2023-04-25T23:42:08;21.83;;;17.40;;
43793;SDS011;29414;44.798;20.366;2023-04-25T23:46:08;21.93;;;15.83;;
43793;SDS011;29414;44.798;20.366;2023-04-25T23:50:08;19.73;;;15.17;;
43793;SDS011;29414;44.798;20.366;2023-04-25T23:54:09;20.37;;;15.33;;
43793;SDS011;29414;44.798;20.366;2023-04-25T23:58:10;16.80;;;14.23;;
